Terminal Aerodrome Forecast
Issued by NWS

Home | Current Version | Previous Version | Graphics & Text | Print | Product List | Glossary Off
Versions: 1 2 3 4 5 6 7 8 9 10 11 12 13 14 15 16 17 18 19

000
FTUS43 KDDC 241207 AAA
TAFGCK
TAF AMD
KGCK 241207Z 2412/2512 32003KT P6SM OVC200
     FM241500 04010KT P6SM OVC150
     FM242200 10010KT P6SM VCTS BKN050CB
     FM250300 06010KT P6SM -SHRA OVC100
     FM250600 06010KT 4SM BR VCSH OVC060
     FM250900 03010KT 2SM BR VCSH OVC009=

USA.gov is the U.S. government's official web portal to all federal, state and local government web resources and services.